Time;durP1;ratioP1;P1;durP2;ratioP2;P2;SDS_P1;SDS_P2;PMS_P1;PMS_P2;Temp;Humidity;BMP_temperature;BMP_pressure;BME280_temperature;BME280_humidity;BME280_pressure;Samples;Min_cycle;Max_cycle;Signal;HPM_P1;HPM_P2
2021/08/14 00:00:48;;;;;;;18.90;5.57;;;;;;;16.19;100.00;101668.03;2617646;47;20451;-47
2021/08/14 00:03:19;;;;;;;30.00;6.70;;;;;;;16.14;100.00;101665.31;2619052;47;20425;-48
2021/08/14 00:05:49;;;;;;;23.97;6.33;;;;;;;16.11;100.00;101665.22;2617422;47;20401;-46
2021/08/14 00:08:19;;;;;;;23.97;6.03;;;;;;;16.04;100.00;101664.09;2618898;47;20407;-50
2021/08/14 00:10:48;;;;;;;21.53;5.40;;;;;;;16.04;100.00;101666.72;2618532;47;20430;-47
2021/08/14 00:13:18;;;;;;;22.92;6.20;;;;;;;16.09;100.00;101663.38;2617496;47;20871;-48
2021/08/14 00:15:47;;;;;;;21.70;5.70;;;;;;;16.14;100.00;101672.22;2623774;36;20198;-48
2021/08/14 00:18:17;;;;;;;29.00;6.07;;;;;;;16.04;100.00;101679.72;2619891;54;20399;-50
2021/08/14 00:20:47;;;;;;;23.23;6.20;;;;;;;16.04;100.00;101669.31;2636607;36;20466;-50
2021/08/14 00:23:17;;;;;;;20.33;5.07;;;;;;;16.02;100.00;101673.59;2619052;46;20411;-47
2021/08/14 00:25:46;;;;;;;29.77;5.70;;;;;;;15.91;100.00;101665.38;2625875;36;20432;-49
2021/08/14 00:28:17;;;;;;;17.93;5.60;;;;;;;15.93;100.00;101670.66;2620153;39;20749;-46
2021/08/14 00:30:46;;;;;;;20.60;6.13;;;;;;;15.91;100.00;101680.13;2623494;36;20463;-47
2021/08/14 00:33:16;;;;;;;18.50;5.83;;;;;;;15.93;100.00;101678.47;2619499;46;20388;-47
2021/08/14 00:35:45;;;;;;;19.40;6.27;;;;;;;15.94;100.00;101685.44;2619123;46;20419;-46
2021/08/14 00:38:16;;;;;;;17.30;6.32;;;;;;;15.98;100.00;101684.72;2619746;46;20392;-47
2021/08/14 00:40:46;;;;;;;21.83;6.37;;;;;;;16.02;100.00;101689.22;2641535;36;20209;-48
2021/08/14 00:43:15;;;;;;;27.30;6.67;;;;;;;15.99;100.00;101691.69;2618627;46;20415;-48
2021/08/14 00:45:45;;;;;;;24.83;6.73;;;;;;;16.01;100.00;101692.63;2617751;47;20419;-48
2021/08/14 00:48:35;;;;;;;20.07;5.80;;;;;;;15.91;100.00;101686.19;2618295;46;20412;-48
2021/08/14 00:51:04;;;;;;;25.00;6.10;;;;;;;15.80;100.00;101683.22;2623013;36;20482;-50
2021/08/14 00:53:35;;;;;;;19.67;5.70;;;;;;;15.74;100.00;101682.13;2619709;46;20399;-45
2021/08/14 00:56:06;;;;;;;19.87;5.00;;;;;;;15.69;100.00;101686.28;2623708;36;20194;-46
2021/08/14 00:58:35;;;;;;;23.13;6.13;;;;;;;15.72;100.00;101692.47;2619852;54;20396;-45
2021/08/14 01:01:06;;;;;;;23.17;5.80;;;;;;;15.69;100.00;101679.34;2636361;36;20463;-48
2021/08/14 01:03:36;;;;;;;22.40;6.20;;;;;;;15.71;100.00;101682.00;2619267;46;20512;-47
2021/08/14 01:06:05;;;;;;;26.20;6.57;;;;;;;15.77;100.00;101683.13;2618495;36;20453;-50
2021/08/14 01:08:36;;;;;;;26.00;7.63;;;;;;;15.77;100.00;101690.03;2619913;46;20415;-47
2021/08/14 01:11:06;;;;;;;25.90;6.40;;;;;;;15.79;100.00;101685.75;2619177;47;20446;-47
2021/08/14 01:13:36;;;;;;;17.40;5.50;;;;;;;15.75;100.00;101679.56;2618264;54;20439;-50
2021/08/14 01:16:07;;;;;;;33.80;6.23;;;;;;;15.74;100.00;101671.72;2619204;36;20451;-47
2021/08/14 01:18:40;;;;;;;21.13;6.10;;;;;;;15.69;100.00;101671.53;2619992;47;20408;-46
2021/08/14 01:21:10;;;;;;;21.47;6.07;;;;;;;15.68;100.00;101661.97;2639589;36;20547;-45
2021/08/14 01:23:41;;;;;;;15.97;5.90;;;;;;;15.69;100.00;101668.06;2618507;46;20426;-47
2021/08/14 01:26:12;;;;;;;28.13;6.43;;;;;;;15.71;100.00;101672.50;2630437;36;20518;-52
2021/08/14 01:28:44;;;;;;;17.83;5.97;;;;;;;15.77;100.00;101664.00;2618380;47;20408;-51
2021/08/14 01:31:15;;;;;;;23.83;5.97;;;;;;;15.75;100.00;101653.53;2618027;47;20432;-50
2021/08/14 01:33:45;;;;;;;25.43;6.27;;;;;;;15.73;100.00;101660.44;2618736;46;20396;-48
2021/08/14 01:36:18;;;;;;;20.30;5.70;;;;;;;15.64;100.00;101660.13;2622456;36;20772;-50
2021/08/14 01:38:49;;;;;;;27.03;6.47;;;;;;;15.64;100.00;101665.31;2620006;39;20748;-46
2021/08/14 01:41:19;;;;;;;14.63;5.63;;;;;;;15.60;100.00;101664.31;2636139;36;20462;-48
2021/08/14 01:43:55;;;;;;;25.17;6.27;;;;;;;15.56;100.00;101664.13;2618107;47;20886;-47
2021/08/14 01:46:25;;;;;;;23.83;5.80;;;;;;;15.47;100.00;101657.78;2621045;36;20435;-46
2021/08/14 01:48:55;;;;;;;24.70;7.07;;;;;;;15.51;100.00;101654.47;2635314;36;20396;-49
2021/08/14 01:51:25;;;;;;;19.00;6.30;;;;;;;15.50;100.00;101655.28;2618143;47;20444;-47
2021/08/14 01:53:56;;;;;;;23.83;6.53;;;;;;;15.56;100.00;101653.72;2618727;39;20750;-47
2021/08/14 01:56:27;;;;;;;22.03;5.63;;;;;;;15.60;100.00;101660.81;2619863;36;20438;-50
2021/08/14 01:58:58;;;;;;;19.30;6.20;;;;;;;15.65;100.00;101659.28;2618571;46;20421;-48
2021/08/14 02:01:27;;;;;;;20.97;6.80;;;;;;;15.63;100.00;101654.00;2618828;36;20458;-49
2021/08/14 02:03:57;;;;;;;20.70;6.33;;;;;;;15.61;100.00;101649.59;2620265;36;20417;-47
2021/08/14 02:06:29;;;;;;;28.25;6.50;;;;;;;15.66;100.00;101658.44;2619268;46;20427;-46
2021/08/14 02:08:59;;;;;;;17.25;6.53;;;;;;;15.66;100.00;101648.03;2619414;47;20606;-49
2021/08/14 02:11:33;;;;;;;17.73;5.80;;;;;;;15.67;100.00;101647.19;2639678;36;20210;-48
2021/08/14 02:14:05;;;;;;;19.97;5.33;;;;;;;15.73;100.00;101644.81;2619197;47;20384;-48
2021/08/14 02:16:35;;;;;;;15.80;5.30;;;;;;;15.60;100.00;101638.31;2619711;36;20431;-47
2021/08/14 02:19:06;;;;;;;20.17;6.37;;;;;;;15.61;100.00;101634.88;2637753;36;20400;-45
2021/08/14 02:21:35;;;;;;;14.03;5.97;;;;;;;15.61;100.00;101629.69;2618944;47;20443;-46
2021/08/14 02:24:06;;;;;;;18.33;6.10;;;;;;;15.69;100.00;101629.06;2636693;36;20405;-46
2021/08/14 02:26:35;;;;;;;18.50;5.40;;;;;;;15.66;100.00;101619.44;2617818;46;20400;-48
2021/08/14 02:29:06;;;;;;;21.53;6.03;;;;;;;15.70;100.00;101634.31;2618360;46;20403;-45
2021/08/14 02:31:36;;;;;;;23.90;5.90;;;;;;;15.86;100.00;101627.03;2619988;39;20763;-46
2021/08/14 02:34:05;;;;;;;21.13;6.17;;;;;;;15.80;100.00;101618.16;2636603;36;20404;-45
2021/08/14 02:36:35;;;;;;;14.60;6.07;;;;;;;15.86;100.00;101608.81;2618999;46;20412;-50
2021/08/14 02:39:05;;;;;;;17.50;5.35;;;;;;;16.04;100.00;101603.34;2620388;36;20865;-45
2021/08/14 02:41:34;;;;;;;16.70;5.10;;;;;;;15.82;100.00;101602.63;2619442;47;20657;-50
2021/08/14 02:44:04;;;;;;;22.70;8.73;;;;;;;15.79;100.00;101597.28;2620941;36;20404;-49
2021/08/14 02:46:35;;;;;;;20.83;7.53;;;;;;;15.77;100.00;101607.69;2619493;46;20407;-48
2021/08/14 02:49:04;;;;;;;29.93;6.80;;;;;;;15.90;100.00;101598.53;2639197;36;20412;-48
2021/08/14 02:51:34;;;;;;;16.60;5.80;;;;;;;15.83;100.00;101599.19;2619070;46;20453;-46
2021/08/14 02:54:03;;;;;;;24.00;7.27;;;;;;;15.89;100.00;101588.09;2620677;36;20735;-47
2021/08/14 02:56:33;;;;;;;22.33;6.00;;;;;;;15.84;100.00;101589.66;2619347;46;20380;-49
2021/08/14 02:59:02;;;;;;;18.33;5.90;;;;;;;15.84;100.00;101584.47;2622152;36;20416;-46
2021/08/14 03:01:32;;;;;;;15.87;7.10;;;;;;;15.68;100.00;101596.94;2619391;47;20443;-47
2021/08/14 03:04:03;;;;;;;17.77;5.80;;;;;;;15.64;100.00;101605.50;2619812;36;20473;-47
2021/08/14 03:06:33;;;;;;;19.77;5.07;;;;;;;15.61;100.00;101584.56;2618316;47;20396;-46
2021/08/14 03:09:03;;;;;;;15.17;5.10;;;;;;;15.51;100.00;101584.25;2617968;47;20396;-48
2021/08/14 03:11:33;;;;;;;14.87;5.40;;;;;;;15.52;100.00;101587.72;2619996;36;20475;-47
2021/08/14 03:14:02;;;;;;;17.10;5.87;;;;;;;15.60;100.00;101578.50;2619818;36;20728;-45
2021/08/14 03:16:32;;;;;;;28.37;6.47;;;;;;;15.60;100.00;101581.09;2619426;47;20426;-48
2021/08/14 03:19:03;;;;;;;14.83;5.07;;;;;;;15.55;100.00;101587.84;2618759;47;20416;-51
2021/08/14 03:21:32;;;;;;;14.53;5.33;;;;;;;15.54;100.00;101583.50;2621755;36;20474;-47
2021/08/14 03:24:03;;;;;;;15.07;5.33;;;;;;;15.45;100.00;101590.94;2640158;36;20404;-47
2021/08/14 03:26:32;;;;;;;13.00;5.20;;;;;;;15.53;100.00;101590.41;2618236;47;20416;-49
2021/08/14 03:29:02;;;;;;;12.48;5.28;;;;;;;15.56;100.00;101596.53;2625569;36;20731;-51
2021/08/14 03:31:31;;;;;;;15.63;5.50;;;;;;;15.60;100.00;101590.59;2619288;47;20175;-48
2021/08/14 03:34:01;;;;;;;14.68;5.53;;;;;;;15.59;100.00;101584.50;2619098;47;20144;-48
2021/08/14 03:36:32;;;;;;;17.50;5.50;;;;;;;15.50;100.00;101585.06;2618569;47;20645;-46
2021/08/14 03:39:01;;;;;;;16.17;5.67;;;;;;;15.56;100.00;101587.00;2624842;36;20146;-47
2021/08/14 03:41:31;;;;;;;16.37;5.97;;;;;;;15.51;100.00;101585.97;2619006;47;20926;-49
2021/08/14 03:44:00;;;;;;;16.87;5.80;;;;;;;15.53;100.00;101590.41;2637611;36;20427;-48
2021/08/14 03:46:29;;;;;;;18.57;4.73;;;;;;;15.60;100.00;101580.19;2617755;46;20411;-50
2021/08/14 03:48:59;;;;;;;13.10;5.33;;;;;;;15.48;100.00;101578.94;2642055;36;20401;-50
2021/08/14 03:51:28;;;;;;;16.17;5.43;;;;;;;15.45;100.00;101586.66;2618525;47;20431;-47
2021/08/14 03:53:59;;;;;;;15.43;5.70;;;;;;;15.49;100.00;101588.50;2619247;47;20367;-48
2021/08/14 03:56:29;;;;;;;17.52;5.53;;;;;;;15.39;100.00;101586.44;2628106;36;20436;-46
2021/08/14 03:58:58;;;;;;;16.63;5.30;;;;;;;15.48;100.00;101585.88;2619266;47;20236;-46
2021/08/14 04:01:28;;;;;;;16.93;5.50;;;;;;;15.48;100.00;101585.88;2619821;39;20762;-46
2021/08/14 04:03:57;;;;;;;9.53;4.33;;;;;;;15.42;100.00;101588.25;2618948;47;20444;-46
2021/08/14 04:06:27;;;;;;;16.37;5.60;;;;;;;15.43;100.00;101585.69;2633256;36;20452;-49
2021/08/14 04:08:56;;;;;;;16.23;5.40;;;;;;;15.37;100.00;101588.06;2619110;47;20389;-47
2021/08/14 04:11:27;;;;;;;15.03;5.63;;;;;;;15.36;100.00;101587.22;2635983;36;20472;-49
2021/08/14 04:13:56;;;;;;;17.63;4.95;;;;;;;15.47;100.00;101589.28;2618440;39;20725;-49
2021/08/14 04:16:26;;;;;;;14.47;5.70;;;;;;;15.45;100.00;101589.25;2619010;47;20158;-49
2021/08/14 04:18:55;;;;;;;13.33;5.50;;;;;;;15.50;100.00;101582.47;2618976;47;20395;-47
2021/08/14 04:21:26;;;;;;;21.23;5.50;;;;;;;15.52;100.00;101583.44;2620642;36;20468;-49
2021/08/14 04:23:55;;;;;;;15.00;6.03;;;;;;;15.51;100.00;101579.06;2619014;47;20392;-50
2021/08/14 04:26:27;;;;;;;19.90;6.40;;;;;;;15.49;100.00;101572.03;2635626;36;20449;-48
2021/08/14 04:29:00;;;;;;;15.30;5.27;;;;;;;15.48;100.00;101576.34;2628674;36;20391;-49
2021/08/14 04:31:29;;;;;;;16.00;5.50;;;;;;;15.51;100.00;101576.47;2619113;47;20445;-46
2021/08/14 04:33:59;;;;;;;22.50;6.22;;;;;;;15.61;100.00;101581.97;2637430;36;20377;-49
2021/08/14 04:36:29;;;;;;;20.80;5.93;;;;;;;15.63;100.00;101588.09;2617957;47;20155;-47
2021/08/14 04:38:59;;;;;;;15.07;5.50;;;;;;;15.63;100.00;101590.69;2633766;36;20897;-49
2021/08/14 04:41:28;;;;;;;16.48;5.97;;;;;;;15.65;100.00;101583.84;2618958;47;20922;-48
2021/08/14 04:43:59;;;;;;;15.67;6.30;;;;;;;15.60;100.00;101575.00;2623640;36;20145;-48
2021/08/14 04:46:29;;;;;;;17.07;5.77;;;;;;;15.61;100.00;101587.16;2619022;47;20404;-49
2021/08/14 04:48:58;;;;;;;13.40;5.73;;;;;;;15.74;100.00;101581.53;2620005;36;20438;-46
2021/08/14 04:51:28;;;;;;;16.10;6.13;;;;;;;15.78;100.00;101579.94;2619115;47;20445;-48
2021/08/14 04:53:57;;;;;;;12.13;5.28;;;;;;;15.79;100.00;101582.59;2638947;36;20392;-51
2021/08/14 04:56:27;;;;;;;24.70;5.90;;;;;;;15.70;100.00;101581.41;2618333;47;20152;-46
2021/08/14 04:58:56;;;;;;;19.53;5.57;;;;;;;15.71;100.00;101578.84;2637290;36;20410;-51
2021/08/14 05:01:27;;;;;;;13.97;4.80;;;;;;;15.76;100.00;101577.28;2618120;47;20443;-49
2021/08/14 05:03:57;;;;;;;23.98;5.93;;;;;;;15.73;100.00;101587.59;2623045;36;20409;-47
2021/08/14 05:06:26;;;;;;;22.88;6.38;;;;;;;15.76;100.00;101579.00;2619658;46;20155;-48
2021/08/14 05:08:57;;;;;;;26.07;5.87;;;;;;;15.73;100.00;101582.38;2632114;36;20170;-48
2021/08/14 05:11:26;;;;;;;22.58;6.30;;;;;;;15.80;100.00;101581.75;2620358;31;20440;-48
2021/08/14 05:13:57;;;;;;;14.77;5.90;;;;;;;15.86;100.00;101572.38;2634435;36;20148;-48
2021/08/14 05:16:28;;;;;;;20.17;5.97;;;;;;;15.85;100.00;101568.03;2619850;39;20391;-48
2021/08/14 05:18:58;;;;;;;17.13;6.00;;;;;;;15.91;100.00;101581.22;2619722;46;20390;-49
2021/08/14 05:21:27;;;;;;;17.00;5.20;;;;;;;15.80;100.00;101579.16;2619802;39;20778;-46
2021/08/14 05:23:57;;;;;;;17.90;5.70;;;;;;;15.88;100.00;101574.19;2637937;36;20381;-51
2021/08/14 05:26:26;;;;;;;20.77;6.32;;;;;;;15.98;100.00;101570.22;2618823;46;20420;-47
2021/08/14 05:28:58;;;;;;;25.90;6.83;;;;;;;16.05;100.00;101569.56;2643049;36;20151;-48
2021/08/14 05:31:29;;;;;;;13.35;5.93;;;;;;;16.02;100.00;101577.28;2619261;46;20451;-47
2021/08/14 05:34:02;;;;;;;19.63;6.00;;;;;;;15.99;100.00;101569.38;2640557;36;20150;-48
2021/08/14 05:36:31;;;;;;;18.17;5.30;;;;;;;16.07;100.00;101574.84;2618864;47;20411;-46
2021/08/14 05:39:01;;;;;;;14.60;5.10;;;;;;;16.03;100.00;101580.75;2637849;36;20437;-49
2021/08/14 05:41:31;;;;;;;23.33;6.37;;;;;;;16.18;100.00;101581.28;2618726;39;20768;-48
2021/08/14 05:44:00;;;;;;;20.97;6.97;;;;;;;16.24;100.00;101577.97;2619376;47;20407;-46
2021/08/14 05:46:31;;;;;;;16.40;5.63;;;;;;;16.22;100.00;101565.72;2618769;52;21015;-46
2021/08/14 05:49:01;;;;;;;17.85;5.85;;;;;;;16.29;100.00;101567.69;2619513;46;20501;-47
2021/08/14 05:51:30;;;;;;;16.83;5.63;;;;;;;16.34;100.00;101573.94;2630658;36;20213;-51
2021/08/14 05:54:16;;;;;;;14.53;6.00;;;;;;;16.43;100.00;101571.63;2633740;36;20431;-48
2021/08/14 05:56:46;;;;;;;18.50;5.93;;;;;;;16.40;100.00;101568.91;2619829;46;20410;-47
2021/08/14 05:59:15;;;;;;;19.27;5.63;;;;;;;16.50;100.00;101570.06;2636026;36;20499;-47
2021/08/14 06:01:46;;;;;;;22.13;5.63;;;;;;;16.41;100.00;101562.00;2619249;46;20456;-50
2021/08/14 06:04:16;;;;;;;15.73;5.77;;;;;;;16.52;100.00;101567.53;2637201;36;20453;-48
2021/08/14 06:06:45;;;;;;;17.15;5.40;;;;;;;16.56;100.00;101567.66;2619033;46;20411;-47
2021/08/14 06:09:16;;;;;;;17.07;5.10;;;;;;;16.65;100.00;101568.75;2619031;46;20327;-45
2021/08/14 06:11:45;;;;;;;26.10;6.20;;;;;;;16.65;100.00;101568.75;2619286;47;20445;-46
2021/08/14 06:14:15;;;;;;;23.37;5.57;;;;;;;16.77;100.00;101566.50;2619096;47;20407;-49
2021/08/14 06:16:44;;;;;;;15.50;5.13;;;;;;;16.70;100.00;101564.56;2619965;39;20722;-46
2021/08/14 06:19:15;;;;;;;18.30;5.23;;;;;;;16.76;100.00;101559.53;2637479;36;20357;-48
2021/08/14 06:21:45;;;;;;;13.93;4.30;;;;;;;16.88;100.00;101548.59;2619030;46;20463;-48
2021/08/14 06:24:14;;;;;;;19.17;4.93;;;;;;;16.92;100.00;101544.34;2625671;36;20504;-48
2021/08/14 06:26:44;;;;;;;19.77;5.20;;;;;;;17.05;100.00;101540.38;2619417;47;20859;-48
2021/08/14 06:29:13;;;;;;;14.88;4.57;;;;;;;17.06;100.00;101539.53;2626700;36;20913;-47
2021/08/14 06:31:43;;;;;;;11.10;4.40;;;;;;;17.05;100.00;101541.28;2619510;47;20193;-48
2021/08/14 06:34:12;;;;;;;21.85;4.88;;;;;;;17.16;100.00;101545.91;2618836;47;20431;-50
2021/08/14 06:36:43;;;;;;;15.10;4.53;;;;;;;17.14;100.00;101531.09;2636674;36;20195;-50
2021/08/14 06:39:12;;;;;;;14.83;4.80;;;;;;;17.22;100.00;101533.91;2626474;36;20419;-49
2021/08/14 06:41:42;;;;;;;12.67;4.87;;;;;;;17.38;100.00;101523.91;2618762;46;20479;-46
2021/08/14 06:44:11;;;;;;;16.30;4.37;;;;;;;17.33;100.00;101515.91;2638379;36;21275;-46
2021/08/14 06:46:41;;;;;;;32.72;7.65;;;;;;;17.42;100.00;101512.66;2618034;46;20412;-49
2021/08/14 06:49:10;;;;;;;41.63;10.37;;;;;;;17.45;100.00;101514.47;2622811;36;22168;-49
2021/08/14 06:51:41;;;;;;;30.60;6.95;;;;;;;17.64;100.00;101513.22;2618005;46;20434;-47
2021/08/14 06:54:12;;;;;;;22.08;5.68;;;;;;;17.63;100.00;101498.38;2617950;47;20672;-47
2021/08/14 06:56:41;;;;;;;54.47;11.00;;;;;;;17.79;100.00;101505.75;2617791;47;20152;-47
2021/08/14 06:59:10;;;;;;;20.10;5.30;;;;;;;17.72;100.00;101514.28;2626207;31;20406;-46
2021/08/14 07:01:40;;;;;;;13.80;4.83;;;;;;;17.73;100.00;101504.75;2618207;46;20435;-47
2021/08/14 07:04:10;;;;;;;11.40;4.03;;;;;;;17.76;100.00;101500.47;2619612;36;20396;-46
2021/08/14 07:06:39;;;;;;;22.40;4.67;;;;;;;17.87;100.00;101492.91;2618014;47;20147;-44
2021/08/14 07:09:09;;;;;;;20.30;4.57;;;;;;;17.98;100.00;101497.47;2620032;36;20741;-50
2021/08/14 07:11:39;;;;;;;33.10;8.80;;;;;;;18.06;100.00;101494.22;2619106;47;20193;-49
2021/08/14 07:14:09;;;;;;;18.33;4.60;;;;;;;18.06;100.00;101490.75;2623049;36;20913;-47
2021/08/14 07:16:38;;;;;;;15.93;4.63;;;;;;;17.93;100.00;101487.81;2619339;46;20408;-47
2021/08/14 07:19:08;;;;;;;16.50;5.57;;;;;;;18.10;100.00;101484.72;2619012;47;20396;-45
2021/08/14 07:21:37;;;;;;;16.67;4.87;;;;;;;18.03;100.00;101477.56;2619227;46;20420;-45
2021/08/14 07:24:07;;;;;;;17.70;5.83;;;;;;;18.19;100.00;101479.72;2618611;47;20402;-47
2021/08/14 07:26:37;;;;;;;23.00;5.37;;;;;;;18.30;100.00;101472.09;2620239;36;20439;-46
2021/08/14 07:29:07;;;;;;;15.07;4.70;;;;;;;18.28;100.00;101467.69;2639884;36;20412;-45
2021/08/14 07:31:37;;;;;;;18.87;4.50;;;;;;;18.45;100.00;101468.03;2618349;47;20418;-47
2021/08/14 07:34:07;;;;;;;20.33;6.00;;;;;;;18.65;100.00;101467.56;2622336;36;21261;-48
2021/08/14 07:36:36;;;;;;;11.07;3.63;;;;;;;18.66;100.00;101454.50;2618952;47;20403;-45
2021/08/14 07:39:06;;;;;;;15.03;4.13;;;;;;;18.51;100.00;101459.47;2632524;36;20151;-47
2021/08/14 07:41:36;;;;;;;14.33;3.43;;;;;;;18.50;100.00;101463.78;2619280;46;20448;-46
2021/08/14 07:44:07;;;;;;;18.80;4.63;;;;;;;18.62;100.00;101460.56;2640976;36;20729;-47
2021/08/14 07:46:49;;;;;;;12.73;3.50;;;;;;;18.82;100.00;101457.44;2619189;39;20715;-45
2021/08/14 07:49:19;;;;;;;15.27;4.50;;;;;;;18.99;100.00;101458.63;2618849;47;20432;-47
2021/08/14 07:51:48;;;;;;;11.10;4.27;;;;;;;18.96;100.00;101455.94;2619355;47;20450;-47
2021/08/14 07:54:17;;;;;;;24.10;6.10;;;;;;;19.14;100.00;101457.16;2637342;36;20916;-46
2021/08/14 07:56:47;;;;;;;19.97;4.93;;;;;;;19.10;100.00;101451.00;2618997;47;20408;-45
2021/08/14 07:59:18;;;;;;;22.87;5.03;;;;;;;19.33;100.00;101453.13;2619332;36;20415;-47
2021/08/14 08:01:48;;;;;;;13.73;4.00;;;;;;;19.30;100.00;101450.47;2619482;47;20436;-46
2021/08/14 08:04:17;;;;;;;24.58;5.60;;;;;;;19.42;100.00;101448.03;2637082;36;20395;-47
2021/08/14 08:06:47;;;;;;;19.30;4.80;;;;;;;19.40;100.00;101443.63;2618713;47;20150;-45
2021/08/14 08:09:16;;;;;;;14.00;4.45;;;;;;;19.55;100.00;101443.00;2637164;36;20436;-47
2021/08/14 08:11:46;;;;;;;19.30;5.10;;;;;;;19.58;100.00;101431.72;2617538;47;20191;-51
2021/08/14 08:14:17;;;;;;;16.30;4.40;;;;;;;19.49;100.00;101435.91;2623430;36;20424;-46
2021/08/14 08:16:50;;;;;;;13.43;4.30;;;;;;;19.61;100.00;101432.63;2617913;47;20388;-45
2021/08/14 08:19:20;;;;;;;22.57;6.03;;;;;;;19.83;100.00;101418.13;2637257;36;20432;-46
2021/08/14 08:21:49;;;;;;;32.27;6.73;;;;;;;20.16;100.00;101421.19;2617747;47;20450;-46
2021/08/14 08:24:19;;;;;;;21.33;5.57;;;;;;;20.26;100.00;101423.91;2617908;39;20792;-45
2021/08/14 08:26:48;;;;;;;20.73;5.57;;;;;;;20.27;100.00;101434.41;2619459;36;20443;-50
2021/08/14 08:29:19;;;;;;;17.20;5.27;;;;;;;20.24;100.00;101436.97;2636648;36;20710;-49
2021/08/14 08:31:49;;;;;;;17.53;5.03;;;;;;;19.92;100.00;101438.31;2618388;47;20455;-45
2021/08/14 08:34:19;;;;;;;15.30;6.10;;;;;;;20.01;100.00;101423.59;2626167;36;20430;-45
2021/08/14 08:36:48;;;;;;;24.73;5.33;;;;;;;19.92;100.00;101440.94;2618917;47;20400;-46
2021/08/14 08:39:18;;;;;;;16.00;5.20;;;;;;;19.89;100.00;101433.00;2618141;47;20418;-48
2021/08/14 08:41:47;;;;;;;16.20;4.50;;;;;;;20.07;100.00;101429.81;2620714;36;20692;-45
2021/08/14 08:44:18;;;;;;;10.70;3.40;;;;;;;20.06;100.00;101430.66;2621043;36;20770;-44
2021/08/14 08:46:48;;;;;;;17.97;4.60;;;;;;;20.21;100.00;101429.09;2619814;47;20415;-45
2021/08/14 08:49:20;;;;;;;15.97;5.20;;;;;;;20.18;100.00;101434.28;2620980;36;20415;-47
2021/08/14 08:51:50;;;;;;;13.90;4.23;;;;;;;20.18;100.00;101423.81;2619901;46;20450;-50
2021/08/14 08:54:20;;;;;;;10.10;4.10;;;;;;;20.25;100.00;101425.63;2637955;36;20824;-49
2021/08/14 08:56:49;;;;;;;18.40;4.83;;;;;;;20.39;100.00;101414.47;2618199;46;20477;-48
2021/08/14 08:59:20;;;;;;;12.13;3.97;;;;;;;20.50;100.00;101410.19;2619211;36;20878;-49
2021/08/14 09:01:50;;;;;;;14.23;4.00;;;;;;;20.57;100.00;101412.06;2620301;39;20559;-47
2021/08/14 09:04:24;;;;;;;13.80;4.87;;;;;;;20.60;100.00;101405.94;2619743;36;20432;-45
2021/08/14 09:06:54;;;;;;;14.23;4.70;;;;;;;20.65;100.00;101409.50;2619793;46;20419;-46
2021/08/14 09:09:28;;;;;;;13.37;4.23;;;;;;;20.52;100.00;101400.63;2624096;36;20534;-45
2021/08/14 09:12:00;;;;;;;15.50;4.87;;;;;;;20.56;100.00;101410.28;2619909;47;20435;-48
2021/08/14 09:14:32;;;;;;;19.30;5.40;;;;;;;20.80;100.00;101413.16;2619910;36;20440;-47
2021/08/14 09:17:09;;;;;;;15.30;4.20;;;;;;;20.61;100.00;101411.19;2619919;46;20428;-47
2021/08/14 09:19:39;;;;;;;14.57;3.77;;;;;;;20.64;100.00;101419.13;2619780;39;20730;-47
2021/08/14 09:22:14;;;;;;;20.33;5.80;;;;;;;20.64;100.00;101402.50;2619751;47;20424;-47
2021/08/14 09:24:45;;;;;;;18.53;4.70;;;;;;;20.99;100.00;101401.09;2619065;46;20465;-46
2021/08/14 09:27:15;;;;;;;15.53;4.60;;;;;;;21.18;100.00;101405.63;2619713;46;20446;-48
2021/08/14 09:29:47;;;;;;;16.37;3.87;;;;;;;21.34;100.00;101405.75;2637675;36;20562;-48
2021/08/14 09:32:19;;;;;;;17.00;5.23;;;;;;;21.24;100.00;101398.69;2619353;47;20428;-48
2021/08/14 09:34:49;;;;;;;14.43;4.77;;;;;;;21.32;100.00;101402.22;2620928;36;20432;-50
2021/08/14 09:37:20;;;;;;;15.50;4.97;;;;;;;21.01;100.00;101399.34;2620119;39;20728;-45
2021/08/14 09:39:56;;;;;;;19.50;5.57;;;;;;;20.97;100.00;101405.47;2623794;36;20424;-47
2021/08/14 09:42:26;;;;;;;10.63;4.10;;;;;;;20.99;100.00;101404.63;2619430;46;20431;-46
2021/08/14 09:45:13;;;;;;;13.27;4.10;;;;;;;21.04;100.00;101402.03;2641263;36;20432;-49
2021/08/14 09:47:43;;;;;;;16.50;4.63;;;;;;;21.01;100.00;101412.47;2618428;46;20404;-49
2021/08/14 09:50:14;;;;;;;23.25;5.30;;;;;;;21.08;100.00;101406.44;2636601;36;20432;-46
2021/08/14 09:52:46;;;;;;;11.93;4.70;;;;;;;21.14;100.00;101390.75;2619177;47;20954;-48
2021/08/14 09:55:26;;;;;;;21.10;4.63;;;;;;;21.25;100.00;101387.31;2624128;36;20447;-46
2021/08/14 09:58:01;;;;;;;13.30;4.07;;;;;;;20.93;100.00;101388.81;2619834;46;20483;-50
2021/08/14 10:00:32;;;;;;;12.93;3.97;;;;;;;21.00;100.00;101394.97;2623802;36;20443;-46
2021/08/14 10:03:03;;;;;;;17.13;4.43;;;;;;;21.04;100.00;101392.41;2619721;47;20405;-46
2021/08/14 10:05:34;;;;;;;15.43;4.73;;;;;;;21.20;100.00;101392.53;2626906;36;20491;-47
2021/08/14 10:08:04;;;;;;;13.23;3.67;;;;;;;21.23;100.00;101384.66;2619617;46;20420;-49
2021/08/14 10:10:35;;;;;;;14.63;5.00;;;;;;;21.22;100.00;101372.41;2640895;36;20556;-48
2021/08/14 10:13:05;;;;;;;13.93;4.53;;;;;;;21.26;100.00;101381.19;2619664;47;20403;-47
2021/08/14 10:15:36;;;;;;;20.87;5.10;;;;;;;21.08;100.00;101372.34;2622756;36;20554;-49
2021/08/14 10:18:07;;;;;;;11.67;2.83;;;;;;;21.08;100.00;101374.97;2619629;46;20400;-46
2021/08/14 10:20:37;;;;;;;34.80;8.43;;;;;;;21.22;100.00;101374.19;2619618;36;20431;-46
2021/08/14 10:23:08;;;;;;;35.50;6.43;;;;;;;21.34;100.00;101373.38;2619680;47;20400;-46
2021/08/14 10:25:41;;;;;;;19.27;4.60;;;;;;;21.29;100.00;101374.22;2624488;36;20423;-45
2021/08/14 10:28:11;;;;;;;11.43;3.57;;;;;;;21.07;100.00;101370.56;2619525;47;20408;-46
2021/08/14 10:30:52;;;;;;;18.80;4.20;;;;;;;21.09;100.00;101363.59;2621251;36;20447;-48
2021/08/14 10:33:49;;;;;;;17.95;5.55;;;;;;;21.10;100.00;101364.47;2620050;39;20704;-48
2021/08/14 10:36:38;;;;;;;13.73;4.53;;;;;;;21.15;100.00;101363.66;2620680;36;20190;-48
2021/08/14 10:39:26;;;;;;;14.75;4.15;;;;;;;21.09;100.00;101365.34;2619071;36;20951;-48
2021/08/14 10:41:57;;;;;;;9.93;3.63;;;;;;;21.16;100.00;101372.38;2618317;46;20190;-48
2021/08/14 10:44:56;;;;;;;17.30;4.83;;;;;;;21.21;100.00;101361.94;2636545;36;20741;-49
2021/08/14 10:47:47;;;;;;;16.60;4.73;;;;;;;21.39;100.00;101364.66;2618558;46;20423;-48
2021/08/14 10:50:46;;;;;;;17.67;4.82;;;;;;;21.39;100.00;101367.28;2624241;36;20438;-46
2021/08/14 10:53:17;;;;;;;11.57;4.23;;;;;;;21.17;100.00;101361.00;2619424;47;20154;-47
2021/08/14 10:55:48;;;;;;;11.23;4.40;;;;;;;21.15;100.00;101358.41;2625029;36;20808;-49
2021/08/14 10:58:20;;;;;;;11.07;4.17;;;;;;;21.16;100.00;101352.28;2619431;46;20396;-46
2021/08/14 11:00:49;;;;;;;11.80;4.03;;;;;;;21.15;100.00;101355.78;2619970;36;20456;-49
2021/08/14 11:03:22;;;;;;;12.80;4.70;;;;;;;21.07;100.00;101346.94;2619551;46;20396;-46
2021/08/14 11:05:52;;;;;;;12.43;3.80;;;;;;;21.14;100.00;101359.28;2623488;36;20431;-46
2021/08/14 11:08:39;;;;;;;13.77;4.80;;;;;;;21.21;100.00;101354.06;2619418;47;20412;-45
2021/08/14 11:11:38;;;;;;;13.70;4.43;;;;;;;21.48;100.00;101349.84;2639120;36;20466;-45
2021/08/14 11:14:11;;;;;;;13.47;3.60;;;;;;;21.43;100.00;101332.31;2621318;36;20399;-49
2021/08/14 11:16:57;;;;;;;14.40;4.43;;;;;;;21.58;100.00;101335.88;2619360;47;20872;-47
2021/08/14 11:19:47;;;;;;;11.30;3.80;;;;;;;21.58;100.00;101330.66;2624111;36;20553;-46
2021/08/14 11:22:25;;;;;;;9.13;3.90;;;;;;;21.60;100.00;101328.94;2619412;46;20443;-48
2021/08/14 11:24:55;;;;;;;8.60;3.70;;;;;;;21.63;100.00;101334.19;2640882;36;20423;-48
2021/08/14 11:27:27;;;;;;;11.03;3.57;;;;;;;21.58;100.00;101325.41;2619255;47;20412;-48